sensor_id;sensor_type;location;lat;lon;timestamp;temperature;humidity
22966;DHT22;11649;48.090;9.754;2023-12-29T00:02:00;5.70;99.90
22966;DHT22;11649;48.090;9.754;2023-12-29T00:04:27;5.80;99.90
22966;DHT22;11649;48.090;9.754;2023-12-29T00:06:54;5.50;99.90
22966;DHT22;11649;48.090;9.754;2023-12-29T00:09:28;5.50;99.90
22966;DHT22;11649;48.090;9.754;2023-12-29T00:11:55;5.40;99.90
22966;DHT22;11649;48.090;9.754;2023-12-29T00:14:22;5.50;99.90
22966;DHT22;11649;48.090;9.754;2023-12-29T00:16:49;5.60;99.90
22966;DHT22;11649;48.090;9.754;2023-12-29T00:19:16;5.80;99.90
22966;DHT22;11649;48.090;9.754;2023-12-29T00:21:43;5.80;99.90
22966;DHT22;11649;48.090;9.754;2023-12-29T00:24:10;5.80;99.90
22966;DHT22;11649;48.090;9.754;2023-12-29T00:26:37;5.70;99.90
22966;DHT22;11649;48.090;9.754;2023-12-29T00:29:04;6.00;99.90
22966;DHT22;11649;48.090;9.754;2023-12-29T00:31:32;7.70;99.90
22966;DHT22;11649;48.090;9.754;2023-12-29T00:33:59;5.60;99.90
22966;DHT22;11649;48.090;9.754;2023-12-29T00:36:26;5.40;99.90
22966;DHT22;11649;48.090;9.754;2023-12-29T00:38:53;5.40;99.90
22966;DHT22;11649;48.090;9.754;2023-12-29T00:41:20;5.40;99.90
22966;DHT22;11649;48.090;9.754;2023-12-29T00:43:47;5.60;99.90
22966;DHT22;11649;48.090;9.754;2023-12-29T00:46:16;5.60;99.90
22966;DHT22;11649;48.090;9.754;2023-12-29T00:48:43;5.60;99.90
22966;DHT22;11649;48.090;9.754;2023-12-29T00:51:11;5.70;99.90
22966;DHT22;11649;48.090;9.754;2023-12-29T00:53:37;5.70;99.90
22966;DHT22;11649;48.090;9.754;2023-12-29T00:56:12;5.80;99.90
22966;DHT22;11649;48.090;9.754;2023-12-29T00:58:40;5.80;99.90
22966;DHT22;11649;48.090;9.754;2023-12-29T01:01:07;5.70;99.90
22966;DHT22;11649;48.090;9.754;2023-12-29T01:03:38;5.80;99.90
22966;DHT22;11649;48.090;9.754;2023-12-29T01:06:06;5.80;99.90
22966;DHT22;11649;48.090;9.754;2023-12-29T01:08:33;5.80;99.90
22966;DHT22;11649;48.090;9.754;2023-12-29T01:11:00;5.70;99.90
22966;DHT22;11649;48.090;9.754;2023-12-29T01:13:27;5.50;99.90
22966;DHT22;11649;48.090;9.754;2023-12-29T01:15:54;5.60;99.90
22966;DHT22;11649;48.090;9.754;2023-12-29T01:18:21;5.50;99.90
22966;DHT22;11649;48.090;9.754;2023-12-29T01:20:48;5.50;99.90
22966;DHT22;11649;48.090;9.754;2023-12-29T01:23:15;5.50;99.90
22966;DHT22;11649;48.090;9.754;2023-12-29T01:25:41;5.50;99.90
22966;DHT22;11649;48.090;9.754;2023-12-29T01:28:08;5.60;99.90
22966;DHT22;11649;48.090;9.754;2023-12-29T01:30:35;5.60;99.90
22966;DHT22;11649;48.090;9.754;2023-12-29T01:33:02;5.70;99.90
22966;DHT22;11649;48.090;9.754;2023-12-29T01:35:29;5.70;99.90
22966;DHT22;11649;48.090;9.754;2023-12-29T01:37:56;5.80;99.90
22966;DHT22;11649;48.090;9.754;2023-12-29T01:40:24;5.60;99.90
22966;DHT22;11649;48.090;9.754;2023-12-29T01:42:50;5.60;99.90
22966;DHT22;11649;48.090;9.754;2023-12-29T01:45:24;5.60;99.90
22966;DHT22;11649;48.090;9.754;2023-12-29T01:47:53;5.50;99.90
22966;DHT22;11649;48.090;9.754;2023-12-29T01:50:21;5.40;99.90
22966;DHT22;11649;48.090;9.754;2023-12-29T01:52:50;5.30;99.90
22966;DHT22;11649;48.090;9.754;2023-12-29T01:55:20;5.30;99.90
22966;DHT22;11649;48.090;9.754;2023-12-29T01:57:50;5.30;99.90
22966;DHT22;11649;48.090;9.754;2023-12-29T02:00:18;5.10;99.90
22966;DHT22;11649;48.090;9.754;2023-12-29T02:02:49;4.90;99.90
22966;DHT22;11649;48.090;9.754;2023-12-29T02:05:17;4.80;99.90
22966;DHT22;11649;48.090;9.754;2023-12-29T02:07:44;5.00;99.90
22966;DHT22;11649;48.090;9.754;2023-12-29T02:10:11;5.20;99.90
22966;DHT22;11649;48.090;9.754;2023-12-29T02:12:42;5.40;99.90
22966;DHT22;11649;48.090;9.754;2023-12-29T02:15:09;5.40;99.90
22966;DHT22;11649;48.090;9.754;2023-12-29T02:17:41;5.50;99.90
22966;DHT22;11649;48.090;9.754;2023-12-29T02:20:10;5.50;99.90
22966;DHT22;11649;48.090;9.754;2023-12-29T02:22:38;5.60;99.90
22966;DHT22;11649;48.090;9.754;2023-12-29T02:25:05;5.70;99.90
22966;DHT22;11649;48.090;9.754;2023-12-29T02:33:10;5.70;99.90
22966;DHT22;11649;48.090;9.754;2023-12-29T02:35:43;5.80;99.90
22966;DHT22;11649;48.090;9.754;2023-12-29T02:38:11;5.80;99.90
22966;DHT22;11649;48.090;9.754;2023-12-29T02:40:38;5.80;99.90
22966;DHT22;11649;48.090;9.754;2023-12-29T02:43:05;5.80;99.90
22966;DHT22;11649;48.090;9.754;2023-12-29T02:45:32;5.90;99.90
22966;DHT22;11649;48.090;9.754;2023-12-29T02:47:58;5.90;99.90
22966;DHT22;11649;48.090;9.754;2023-12-29T02:50:26;5.90;99.90
22966;DHT22;11649;48.090;9.754;2023-12-29T02:52:53;6.00;99.90
22966;DHT22;11649;48.090;9.754;2023-12-29T02:55:20;6.10;99.90
22966;DHT22;11649;48.090;9.754;2023-12-29T02:57:48;6.00;99.90
22966;DHT22;11649;48.090;9.754;2023-12-29T03:00:15;6.00;99.90
22966;DHT22;11649;48.090;9.754;2023-12-29T03:02:42;6.10;99.90
22966;DHT22;11649;48.090;9.754;2023-12-29T03:05:09;6.10;99.90
22966;DHT22;11649;48.090;9.754;2023-12-29T03:07:36;6.20;99.90
22966;DHT22;11649;48.090;9.754;2023-12-29T03:10:03;6.10;99.90
22966;DHT22;11649;48.090;9.754;2023-12-29T03:12:30;6.10;99.90
22966;DHT22;11649;48.090;9.754;2023-12-29T03:14:57;6.10;99.90
22966;DHT22;11649;48.090;9.754;2023-12-29T03:17:24;6.00;99.90
22966;DHT22;11649;48.090;9.754;2023-12-29T03:19:52;6.00;99.90
22966;DHT22;11649;48.090;9.754;2023-12-29T03:22:19;6.00;99.90
22966;DHT22;11649;48.090;9.754;2023-12-29T03:24:48;6.00;99.90
22966;DHT22;11649;48.090;9.754;2023-12-29T03:27:15;5.90;99.90
22966;DHT22;11649;48.090;9.754;2023-12-29T03:29:42;6.00;99.90
22966;DHT22;11649;48.090;9.754;2023-12-29T03:32:09;5.90;99.90
22966;DHT22;11649;48.090;9.754;2023-12-29T03:34:36;5.90;99.90
22966;DHT22;11649;48.090;9.754;2023-12-29T03:37:03;5.90;99.90
22966;DHT22;11649;48.090;9.754;2023-12-29T03:39:30;5.90;99.90
22966;DHT22;11649;48.090;9.754;2023-12-29T03:41:56;5.90;99.90
22966;DHT22;11649;48.090;9.754;2023-12-29T03:44:23;5.90;99.90
22966;DHT22;11649;48.090;9.754;2023-12-29T03:46:50;5.90;99.90
22966;DHT22;11649;48.090;9.754;2023-12-29T03:49:18;5.90;99.90
22966;DHT22;11649;48.090;9.754;2023-12-29T03:51:46;5.90;99.90
22966;DHT22;11649;48.090;9.754;2023-12-29T03:54:13;5.90;99.90
22966;DHT22;11649;48.090;9.754;2023-12-29T03:56:39;6.00;99.90
22966;DHT22;11649;48.090;9.754;2023-12-29T03:59:06;6.00;99.90
22966;DHT22;11649;48.090;9.754;2023-12-29T04:01:33;6.00;99.90
22966;DHT22;11649;48.090;9.754;2023-12-29T04:04:01;5.90;99.90
22966;DHT22;11649;48.090;9.754;2023-12-29T04:06:28;5.90;99.90
22966;DHT22;11649;48.090;9.754;2023-12-29T04:08:55;5.90;99.90
22966;DHT22;11649;48.090;9.754;2023-12-29T04:11:21;5.80;99.90
22966;DHT22;11649;48.090;9.754;2023-12-29T04:13:48;5.80;99.90
22966;DHT22;11649;48.090;9.754;2023-12-29T04:16:15;5.80;99.90
22966;DHT22;11649;48.090;9.754;2023-12-29T04:18:42;5.70;99.90
22966;DHT22;11649;48.090;9.754;2023-12-29T04:21:13;5.70;99.90
22966;DHT22;11649;48.090;9.754;2023-12-29T04:23:40;5.70;99.90
22966;DHT22;11649;48.090;9.754;2023-12-29T04:26:10;5.70;99.90
22966;DHT22;11649;48.090;9.754;2023-12-29T04:28:37;5.70;99.90
22966;DHT22;11649;48.090;9.754;2023-12-29T04:31:04;5.70;99.90
22966;DHT22;11649;48.090;9.754;2023-12-29T04:33:31;5.70;99.90
22966;DHT22;11649;48.090;9.754;2023-12-29T04:35:58;5.70;99.90
22966;DHT22;11649;48.090;9.754;2023-12-29T04:38:24;5.60;99.90
22966;DHT22;11649;48.090;9.754;2023-12-29T04:40:51;5.60;99.90
22966;DHT22;11649;48.090;9.754;2023-12-29T04:43:18;5.70;99.90
22966;DHT22;11649;48.090;9.754;2023-12-29T04:45:45;5.70;99.90
22966;DHT22;11649;48.090;9.754;2023-12-29T04:48:12;5.60;99.90
22966;DHT22;11649;48.090;9.754;2023-12-29T04:50:39;5.70;99.90
22966;DHT22;11649;48.090;9.754;2023-12-29T04:53:05;5.70;99.90
22966;DHT22;11649;48.090;9.754;2023-12-29T04:55:32;5.70;99.90
22966;DHT22;11649;48.090;9.754;2023-12-29T04:57:59;5.70;99.90
22966;DHT22;11649;48.090;9.754;2023-12-29T05:00:26;5.80;99.90
22966;DHT22;11649;48.090;9.754;2023-12-29T05:02:53;5.80;99.90
22966;DHT22;11649;48.090;9.754;2023-12-29T05:05:19;5.80;99.90
22966;DHT22;11649;48.090;9.754;2023-12-29T05:07:46;5.90;99.90
22966;DHT22;11649;48.090;9.754;2023-12-29T05:10:13;5.90;99.90
22966;DHT22;11649;48.090;9.754;2023-12-29T05:12:40;5.90;99.90
22966;DHT22;11649;48.090;9.754;2023-12-29T05:15:07;5.90;99.90
22966;DHT22;11649;48.090;9.754;2023-12-29T05:17:34;6.00;99.90
22966;DHT22;11649;48.090;9.754;2023-12-29T05:20:01;5.90;99.90
22966;DHT22;11649;48.090;9.754;2023-12-29T05:22:28;6.00;99.90
22966;DHT22;11649;48.090;9.754;2023-12-29T05:24:55;6.10;99.90
22966;DHT22;11649;48.090;9.754;2023-12-29T05:27:26;6.20;99.90
22966;DHT22;11649;48.090;9.754;2023-12-29T05:29:54;6.10;99.90
22966;DHT22;11649;48.090;9.754;2023-12-29T05:32:20;6.30;99.90
22966;DHT22;11649;48.090;9.754;2023-12-29T05:34:47;6.30;99.90
22966;DHT22;11649;48.090;9.754;2023-12-29T05:37:14;6.70;99.90
22966;DHT22;11649;48.090;9.754;2023-12-29T05:39:42;6.40;99.90
22966;DHT22;11649;48.090;9.754;2023-12-29T05:42:09;6.50;99.90
22966;DHT22;11649;48.090;9.754;2023-12-29T05:44:36;6.60;99.90
22966;DHT22;11649;48.090;9.754;2023-12-29T05:47:07;6.60;99.90
22966;DHT22;11649;48.090;9.754;2023-12-29T05:49:34;6.50;99.90
22966;DHT22;11649;48.090;9.754;2023-12-29T05:52:06;7.00;99.90
22966;DHT22;11649;48.090;9.754;2023-12-29T05:54:33;6.60;99.90
22966;DHT22;11649;48.090;9.754;2023-12-29T05:57:01;6.50;99.90
22966;DHT22;11649;48.090;9.754;2023-12-29T05:59:28;6.50;99.90
22966;DHT22;11649;48.090;9.754;2023-12-29T06:01:55;6.40;99.90
22966;DHT22;11649;48.090;9.754;2023-12-29T06:04:23;6.40;99.90
22966;DHT22;11649;48.090;9.754;2023-12-29T06:06:50;6.30;99.90
22966;DHT22;11649;48.090;9.754;2023-12-29T06:09:17;6.30;99.90
22966;DHT22;11649;48.090;9.754;2023-12-29T06:11:44;6.30;99.90
22966;DHT22;11649;48.090;9.754;2023-12-29T06:14:11;6.20;99.90
22966;DHT22;11649;48.090;9.754;2023-12-29T06:16:37;6.20;99.90
22966;DHT22;11649;48.090;9.754;2023-12-29T06:19:04;6.20;99.90
22966;DHT22;11649;48.090;9.754;2023-12-29T06:21:31;6.10;99.90
22966;DHT22;11649;48.090;9.754;2023-12-29T06:23:58;6.10;99.90
22966;DHT22;11649;48.090;9.754;2023-12-29T06:26:25;6.10;99.90
22966;DHT22;11649;48.090;9.754;2023-12-29T06:28:52;6.10;99.90
22966;DHT22;11649;48.090;9.754;2023-12-29T06:31:18;6.00;99.90
22966;DHT22;11649;48.090;9.754;2023-12-29T06:33:45;6.10;99.90
22966;DHT22;11649;48.090;9.754;2023-12-29T06:36:12;6.00;99.90
22966;DHT22;11649;48.090;9.754;2023-12-29T06:38:40;6.00;99.90
22966;DHT22;11649;48.090;9.754;2023-12-29T06:41:07;6.10;99.90
22966;DHT22;11649;48.090;9.754;2023-12-29T06:43:35;6.10;99.90
22966;DHT22;11649;48.090;9.754;2023-12-29T06:46:01;6.10;99.90
22966;DHT22;11649;48.090;9.754;2023-12-29T06:48:28;6.00;99.90
22966;DHT22;11649;48.090;9.754;2023-12-29T06:50:55;6.00;99.90
22966;DHT22;11649;48.090;9.754;2023-12-29T06:53:22;6.00;99.90
22966;DHT22;11649;48.090;9.754;2023-12-29T06:55:49;6.00;99.90
22966;DHT22;11649;48.090;9.754;2023-12-29T06:58:16;5.90;99.90
22966;DHT22;11649;48.090;9.754;2023-12-29T07:00:43;5.80;99.90
22966;DHT22;11649;48.090;9.754;2023-12-29T07:03:13;5.90;99.90
22966;DHT22;11649;48.090;9.754;2023-12-29T07:05:44;6.00;99.90
22966;DHT22;11649;48.090;9.754;2023-12-29T07:08:13;6.00;99.90
22966;DHT22;11649;48.090;9.754;2023-12-29T07:10:41;6.00;99.90
22966;DHT22;11649;48.090;9.754;2023-12-29T07:13:08;6.00;99.90
22966;DHT22;11649;48.090;9.754;2023-12-29T07:15:35;6.00;99.90
22966;DHT22;11649;48.090;9.754;2023-12-29T07:18:02;5.90;99.90
22966;DHT22;11649;48.090;9.754;2023-12-29T07:20:29;5.90;99.90
22966;DHT22;11649;48.090;9.754;2023-12-29T07:22:57;5.80;99.90
22966;DHT22;11649;48.090;9.754;2023-12-29T07:25:24;5.80;99.90
22966;DHT22;11649;48.090;9.754;2023-12-29T07:27:50;5.70;99.90
22966;DHT22;11649;48.090;9.754;2023-12-29T07:30:19;5.60;99.90
22966;DHT22;11649;48.090;9.754;2023-12-29T07:32:46;6.10;99.90
22966;DHT22;11649;48.090;9.754;2023-12-29T07:35:13;5.40;99.90
22966;DHT22;11649;48.090;9.754;2023-12-29T07:37:44;5.60;99.90
22966;DHT22;11649;48.090;9.754;2023-12-29T07:40:11;5.80;99.90
22966;DHT22;11649;48.090;9.754;2023-12-29T07:42:42;5.90;99.90
22966;DHT22;11649;48.090;9.754;2023-12-29T07:45:11;5.80;99.90
22966;DHT22;11649;48.090;9.754;2023-12-29T07:47:38;6.20;99.90
22966;DHT22;11649;48.090;9.754;2023-12-29T07:50:05;7.10;99.90
22966;DHT22;11649;48.090;9.754;2023-12-29T07:52:32;5.90;99.90
22966;DHT22;11649;48.090;9.754;2023-12-29T07:54:59;5.90;99.90
22966;DHT22;11649;48.090;9.754;2023-12-29T07:57:26;5.90;99.90
22966;DHT22;11649;48.090;9.754;2023-12-29T07:59:53;7.10;99.90
22966;DHT22;11649;48.090;9.754;2023-12-29T08:02:20;6.00;99.90
22966;DHT22;11649;48.090;9.754;2023-12-29T08:04:47;6.40;99.90
22966;DHT22;11649;48.090;9.754;2023-12-29T08:07:15;6.00;99.90
22966;DHT22;11649;48.090;9.754;2023-12-29T08:09:45;6.10;99.90
22966;DHT22;11649;48.090;9.754;2023-12-29T08:12:12;6.10;99.90
22966;DHT22;11649;48.090;9.754;2023-12-29T08:14:40;6.10;99.90
22966;DHT22;11649;48.090;9.754;2023-12-29T08:17:07;6.80;99.90
22966;DHT22;11649;48.090;9.754;2023-12-29T08:19:35;6.30;99.90
22966;DHT22;11649;48.090;9.754;2023-12-29T08:22:03;6.30;99.90
22966;DHT22;11649;48.090;9.754;2023-12-29T08:24:30;6.30;99.90
22966;DHT22;11649;48.090;9.754;2023-12-29T08:26:57;6.30;99.90
22966;DHT22;11649;48.090;9.754;2023-12-29T08:29:24;6.50;99.90
22966;DHT22;11649;48.090;9.754;2023-12-29T08:31:52;6.40;99.90
22966;DHT22;11649;48.090;9.754;2023-12-29T08:34:19;6.60;99.90
22966;DHT22;11649;48.090;9.754;2023-12-29T08:36:47;6.50;99.90
22966;DHT22;11649;48.090;9.754;2023-12-29T08:39:14;6.50;99.90
22966;DHT22;11649;48.090;9.754;2023-12-29T08:41:41;6.60;99.90
22966;DHT22;11649;48.090;9.754;2023-12-29T08:44:08;6.60;99.90
22966;DHT22;11649;48.090;9.754;2023-12-29T08:46:35;6.50;99.90
22966;DHT22;11649;48.090;9.754;2023-12-29T08:49:02;6.50;99.90
22966;DHT22;11649;48.090;9.754;2023-12-29T08:51:30;6.60;99.90
22966;DHT22;11649;48.090;9.754;2023-12-29T08:53:57;6.70;99.90
22966;DHT22;11649;48.090;9.754;2023-12-29T08:56:23;6.60;99.90
22966;DHT22;11649;48.090;9.754;2023-12-29T08:58:54;6.80;99.90
22966;DHT22;11649;48.090;9.754;2023-12-29T09:01:21;6.90;99.90
22966;DHT22;11649;48.090;9.754;2023-12-29T09:03:48;6.90;99.90
22966;DHT22;11649;48.090;9.754;2023-12-29T09:06:16;7.00;99.90
22966;DHT22;11649;48.090;9.754;2023-12-29T09:08:45;7.10;99.90
22966;DHT22;11649;48.090;9.754;2023-12-29T09:11:12;7.30;99.90
22966;DHT22;11649;48.090;9.754;2023-12-29T09:13:41;7.30;99.90
22966;DHT22;11649;48.090;9.754;2023-12-29T09:16:08;7.30;99.90
22966;DHT22;11649;48.090;9.754;2023-12-29T09:18:35;7.40;99.90
22966;DHT22;11649;48.090;9.754;2023-12-29T09:21:03;8.10;99.90
22966;DHT22;11649;48.090;9.754;2023-12-29T09:23:31;7.20;99.90
22966;DHT22;11649;48.090;9.754;2023-12-29T09:26:00;7.20;99.90
22966;DHT22;11649;48.090;9.754;2023-12-29T09:28:28;8.60;99.90
22966;DHT22;11649;48.090;9.754;2023-12-29T09:30:56;7.30;99.90
22966;DHT22;11649;48.090;9.754;2023-12-29T09:33:24;7.30;99.90
22966;DHT22;11649;48.090;9.754;2023-12-29T09:35:54;7.40;99.90
22966;DHT22;11649;48.090;9.754;2023-12-29T09:38:21;9.10;99.90
22966;DHT22;11649;48.090;9.754;2023-12-29T09:40:52;8.00;99.90
22966;DHT22;11649;48.090;9.754;2023-12-29T09:43:35;9.00;99.90
22966;DHT22;11649;48.090;9.754;2023-12-29T09:46:05;7.50;99.90
22966;DHT22;11649;48.090;9.754;2023-12-29T09:48:33;7.40;99.90
22966;DHT22;11649;48.090;9.754;2023-12-29T09:51:01;8.10;99.90
22966;DHT22;11649;48.090;9.754;2023-12-29T09:53:27;8.20;99.90
22966;DHT22;11649;48.090;9.754;2023-12-29T09:56:02;7.70;99.90
22966;DHT22;11649;48.090;9.754;2023-12-29T09:58:35;7.70;99.90
22966;DHT22;11649;48.090;9.754;2023-12-29T10:01:06;7.80;99.90
22966;DHT22;11649;48.090;9.754;2023-12-29T10:03:38;7.90;99.90
22966;DHT22;11649;48.090;9.754;2023-12-29T10:06:13;8.00;99.90
22966;DHT22;11649;48.090;9.754;2023-12-29T10:08:45;8.00;99.90
22966;DHT22;11649;48.090;9.754;2023-12-29T10:11:14;8.10;99.90
22966;DHT22;11649;48.090;9.754;2023-12-29T10:13:42;8.20;99.90
22966;DHT22;11649;48.090;9.754;2023-12-29T10:16:28;8.30;99.90
22966;DHT22;11649;48.090;9.754;2023-12-29T10:19:22;8.50;99.90
22966;DHT22;11649;48.090;9.754;2023-12-29T10:22:25;8.60;99.90
22966;DHT22;11649;48.090;9.754;2023-12-29T10:24:54;8.90;99.90
22966;DHT22;11649;48.090;9.754;2023-12-29T10:27:21;9.00;99.90
22966;DHT22;11649;48.090;9.754;2023-12-29T10:29:49;8.90;99.90
22966;DHT22;11649;48.090;9.754;2023-12-29T10:32:16;9.00;99.90
22966;DHT22;11649;48.090;9.754;2023-12-29T10:34:43;9.00;99.90
22966;DHT22;11649;48.090;9.754;2023-12-29T10:37:10;9.20;99.90
22966;DHT22;11649;48.090;9.754;2023-12-29T10:39:55;10.10;99.90
22966;DHT22;11649;48.090;9.754;2023-12-29T10:42:22;9.20;99.90
22966;DHT22;11649;48.090;9.754;2023-12-29T10:45:08;9.20;99.90
22966;DHT22;11649;48.090;9.754;2023-12-29T10:47:35;9.10;99.90
22966;DHT22;11649;48.090;9.754;2023-12-29T10:50:03;9.10;99.90
22966;DHT22;11649;48.090;9.754;2023-12-29T10:52:33;9.20;99.90
22966;DHT22;11649;48.090;9.754;2023-12-29T10:55:10;9.30;99.90
22966;DHT22;11649;48.090;9.754;2023-12-29T10:57:40;9.40;99.90
22966;DHT22;11649;48.090;9.754;2023-12-29T11:00:08;9.60;99.90
22966;DHT22;11649;48.090;9.754;2023-12-29T11:02:35;9.70;99.90
22966;DHT22;11649;48.090;9.754;2023-12-29T11:07:38;9.60;99.90
22966;DHT22;11649;48.090;9.754;2023-12-29T11:10:05;9.90;99.90
22966;DHT22;11649;48.090;9.754;2023-12-29T11:12:39;10.00;99.90
22966;DHT22;11649;48.090;9.754;2023-12-29T11:15:06;10.10;99.90
22966;DHT22;11649;48.090;9.754;2023-12-29T11:17:35;10.20;99.90
22966;DHT22;11649;48.090;9.754;2023-12-29T11:20:03;10.30;99.90
22966;DHT22;11649;48.090;9.754;2023-12-29T11:22:32;10.30;99.90
22966;DHT22;11649;48.090;9.754;2023-12-29T11:24:59;10.40;99.90
22966;DHT22;11649;48.090;9.754;2023-12-29T11:27:28;10.50;99.90
22966;DHT22;11649;48.090;9.754;2023-12-29T11:29:58;10.60;99.90
22966;DHT22;11649;48.090;9.754;2023-12-29T11:32:43;10.70;99.90
22966;DHT22;11649;48.090;9.754;2023-12-29T11:35:17;10.80;99.90
22966;DHT22;11649;48.090;9.754;2023-12-29T11:40:19;10.70;99.90
22966;DHT22;11649;48.090;9.754;2023-12-29T11:42:49;10.60;99.90
22966;DHT22;11649;48.090;9.754;2023-12-29T11:45:28;10.50;99.90
22966;DHT22;11649;48.090;9.754;2023-12-29T11:47:55;10.40;99.90
22966;DHT22;11649;48.090;9.754;2023-12-29T11:50:34;10.30;99.90
22966;DHT22;11649;48.090;9.754;2023-12-29T11:53:03;10.20;99.90
22966;DHT22;11649;48.090;9.754;2023-12-29T11:55:34;10.10;99.90
22966;DHT22;11649;48.090;9.754;2023-12-29T11:58:03;10.20;99.90
22966;DHT22;11649;48.090;9.754;2023-12-29T12:00:45;10.10;99.90
22966;DHT22;11649;48.090;9.754;2023-12-29T12:03:18;10.10;99.90
22966;DHT22;11649;48.090;9.754;2023-12-29T12:05:47;10.20;99.90
22966;DHT22;11649;48.090;9.754;2023-12-29T12:10:54;10.50;99.90
22966;DHT22;11649;48.090;9.754;2023-12-29T12:13:44;10.60;99.90
22966;DHT22;11649;48.090;9.754;2023-12-29T12:19:09;10.50;99.90
22966;DHT22;11649;48.090;9.754;2023-12-29T12:21:37;10.50;99.90
22966;DHT22;11649;48.090;9.754;2023-12-29T12:24:05;10.50;99.90
22966;DHT22;11649;48.090;9.754;2023-12-29T12:26:32;10.50;99.90
22966;DHT22;11649;48.090;9.754;2023-12-29T12:28:59;10.30;99.90
22966;DHT22;11649;48.090;9.754;2023-12-29T12:31:26;10.40;99.90
22966;DHT22;11649;48.090;9.754;2023-12-29T12:33:57;10.40;99.90
22966;DHT22;11649;48.090;9.754;2023-12-29T12:36:24;10.40;99.90
22966;DHT22;11649;48.090;9.754;2023-12-29T12:38:57;10.30;99.90
22966;DHT22;11649;48.090;9.754;2023-12-29T12:41:25;10.40;99.90
22966;DHT22;11649;48.090;9.754;2023-12-29T12:44:12;10.30;99.90
22966;DHT22;11649;48.090;9.754;2023-12-29T12:49:15;10.20;99.90
22966;DHT22;11649;48.090;9.754;2023-12-29T12:51:43;10.30;99.90
22966;DHT22;11649;48.090;9.754;2023-12-29T12:54:10;10.40;99.90
22966;DHT22;11649;48.090;9.754;2023-12-29T12:56:37;10.40;99.90
22966;DHT22;11649;48.090;9.754;2023-12-29T12:59:05;10.30;99.90
22966;DHT22;11649;48.090;9.754;2023-12-29T13:01:35;11.00;99.90
22966;DHT22;11649;48.090;9.754;2023-12-29T13:04:04;11.00;99.90
22966;DHT22;11649;48.090;9.754;2023-12-29T13:06:39;11.30;99.90
22966;DHT22;11649;48.090;9.754;2023-12-29T13:09:08;10.20;99.90
22966;DHT22;11649;48.090;9.754;2023-12-29T13:11:39;10.30;99.90
22966;DHT22;11649;48.090;9.754;2023-12-29T13:14:07;10.30;99.90
22966;DHT22;11649;48.090;9.754;2023-12-29T13:16:37;10.40;99.90
22966;DHT22;11649;48.090;9.754;2023-12-29T13:19:22;10.30;99.90
22966;DHT22;11649;48.090;9.754;2023-12-29T13:21:52;10.40;99.90
22966;DHT22;11649;48.090;9.754;2023-12-29T13:24:24;10.40;99.90
22966;DHT22;11649;48.090;9.754;2023-12-29T13:26:58;10.30;99.90
22966;DHT22;11649;48.090;9.754;2023-12-29T13:29:30;10.20;99.90
22966;DHT22;11649;48.090;9.754;2023-12-29T13:32:09;10.30;99.90
22966;DHT22;11649;48.090;9.754;2023-12-29T13:34:51;10.40;99.90
22966;DHT22;11649;48.090;9.754;2023-12-29T13:37:36;10.30;99.90
22966;DHT22;11649;48.090;9.754;2023-12-29T13:40:13;10.40;99.90
22966;DHT22;11649;48.090;9.754;2023-12-29T13:42:43;10.20;99.90
22966;DHT22;11649;48.090;9.754;2023-12-29T13:45:10;10.20;99.90
22966;DHT22;11649;48.090;9.754;2023-12-29T13:47:38;10.10;99.90
22966;DHT22;11649;48.090;9.754;2023-12-29T13:50:09;10.20;99.90
22966;DHT22;11649;48.090;9.754;2023-12-29T13:52:40;10.20;99.90
22966;DHT22;11649;48.090;9.754;2023-12-29T13:55:09;10.20;99.90
22966;DHT22;11649;48.090;9.754;2023-12-29T13:57:36;10.00;99.90
22966;DHT22;11649;48.090;9.754;2023-12-29T14:00:16;10.20;99.90
22966;DHT22;11649;48.090;9.754;2023-12-29T14:05:39;10.30;99.90
22966;DHT22;11649;48.090;9.754;2023-12-29T14:08:10;10.10;99.90
22966;DHT22;11649;48.090;9.754;2023-12-29T14:10:43;10.10;99.90
22966;DHT22;11649;48.090;9.754;2023-12-29T14:13:15;10.10;99.90
22966;DHT22;11649;48.090;9.754;2023-12-29T14:15:43;10.00;99.90
22966;DHT22;11649;48.090;9.754;2023-12-29T14:18:26;10.00;99.90
22966;DHT22;11649;48.090;9.754;2023-12-29T14:20:58;10.00;99.90
22966;DHT22;11649;48.090;9.754;2023-12-29T14:23:26;10.00;99.90
22966;DHT22;11649;48.090;9.754;2023-12-29T14:25:52;10.00;99.90
22966;DHT22;11649;48.090;9.754;2023-12-29T14:28:21;10.00;99.90
22966;DHT22;11649;48.090;9.754;2023-12-29T14:30:49;10.00;99.90
22966;DHT22;11649;48.090;9.754;2023-12-29T14:33:17;10.00;99.90
22966;DHT22;11649;48.090;9.754;2023-12-29T14:35:44;10.10;99.90
22966;DHT22;11649;48.090;9.754;2023-12-29T14:38:10;10.00;99.90
22966;DHT22;11649;48.090;9.754;2023-12-29T14:40:45;10.30;99.90
22966;DHT22;11649;48.090;9.754;2023-12-29T14:43:12;9.90;99.90
22966;DHT22;11649;48.090;9.754;2023-12-29T14:45:40;9.90;99.90
22966;DHT22;11649;48.090;9.754;2023-12-29T14:48:07;9.80;99.90
22966;DHT22;11649;48.090;9.754;2023-12-29T14:50:34;9.80;99.90
22966;DHT22;11649;48.090;9.754;2023-12-29T14:53:01;9.70;99.90
22966;DHT22;11649;48.090;9.754;2023-12-29T14:55:28;9.70;99.90
22966;DHT22;11649;48.090;9.754;2023-12-29T14:57:54;9.70;99.90
22966;DHT22;11649;48.090;9.754;2023-12-29T15:00:21;9.70;99.90
22966;DHT22;11649;48.090;9.754;2023-12-29T15:02:48;9.70;99.90
22966;DHT22;11649;48.090;9.754;2023-12-29T15:05:15;9.70;99.90
22966;DHT22;11649;48.090;9.754;2023-12-29T15:07:43;9.60;99.90
22966;DHT22;11649;48.090;9.754;2023-12-29T15:10:10;9.60;99.90
22966;DHT22;11649;48.090;9.754;2023-12-29T15:12:36;9.50;99.90
22966;DHT22;11649;48.090;9.754;2023-12-29T15:15:05;9.50;99.90
22966;DHT22;11649;48.090;9.754;2023-12-29T15:17:32;9.50;99.90
22966;DHT22;11649;48.090;9.754;2023-12-29T15:19:59;9.40;99.90
22966;DHT22;11649;48.090;9.754;2023-12-29T15:22:25;9.40;99.90
22966;DHT22;11649;48.090;9.754;2023-12-29T15:24:53;9.30;99.90
22966;DHT22;11649;48.090;9.754;2023-12-29T15:27:19;9.80;99.90
22966;DHT22;11649;48.090;9.754;2023-12-29T15:29:46;9.20;99.90
22966;DHT22;11649;48.090;9.754;2023-12-29T15:32:13;9.20;99.90
22966;DHT22;11649;48.090;9.754;2023-12-29T15:34:40;9.20;99.90
22966;DHT22;11649;48.090;9.754;2023-12-29T15:37:07;9.20;99.90
22966;DHT22;11649;48.090;9.754;2023-12-29T15:39:34;9.30;99.90
22966;DHT22;11649;48.090;9.754;2023-12-29T15:42:00;9.20;99.90
22966;DHT22;11649;48.090;9.754;2023-12-29T15:44:27;9.10;99.90
22966;DHT22;11649;48.090;9.754;2023-12-29T15:46:54;9.10;99.90
22966;DHT22;11649;48.090;9.754;2023-12-29T15:49:23;9.10;99.90
22966;DHT22;11649;48.090;9.754;2023-12-29T15:51:50;9.00;99.90
22966;DHT22;11649;48.090;9.754;2023-12-29T15:54:17;9.00;99.90
22966;DHT22;11649;48.090;9.754;2023-12-29T15:56:44;8.90;99.90
22966;DHT22;11649;48.090;9.754;2023-12-29T15:59:10;8.90;99.90
22966;DHT22;11649;48.090;9.754;2023-12-29T16:01:37;8.90;99.90
22966;DHT22;11649;48.090;9.754;2023-12-29T16:04:04;8.90;99.90
22966;DHT22;11649;48.090;9.754;2023-12-29T16:06:31;8.90;99.90
22966;DHT22;11649;48.090;9.754;2023-12-29T16:08:58;10.00;99.90
22966;DHT22;11649;48.090;9.754;2023-12-29T16:11:29;8.90;99.90
22966;DHT22;11649;48.090;9.754;2023-12-29T16:14:01;8.90;99.90